createdAt,value
2022-12-14T00:04:24.436Z,152.65
2022-12-14T00:09:29.701Z,157.25
2022-12-14T00:14:33.565Z,153.93
2022-12-14T00:19:37.454Z,160.40
2022-12-14T00:24:42.730Z,164.40
2022-12-14T00:29:46.602Z,166.70
2022-12-14T00:34:50.460Z,165.82
2022-12-14T00:39:55.691Z,170.23
2022-12-14T00:44:59.651Z,169.85
2022-12-14T00:50:03.713Z,176.13
2022-12-14T00:55:10.196Z,173.07
2022-12-14T01:00:15.135Z,173.05
2022-12-14T01:05:20.182Z,175.07
2022-12-14T01:10:25.427Z,177.23
2022-12-14T01:15:29.275Z,183.27
2022-12-14T01:20:33.235Z,184.65
2022-12-14T01:25:38.506Z,187.65
2022-12-14T01:30:42.363Z,185.27
2022-12-14T01:35:46.211Z,182.05
2022-12-14T01:40:51.514Z,189.77
2022-12-14T01:45:56.855Z,188.02
2022-12-14T01:51:00.790Z,191.10
2022-12-14T01:56:06.607Z,189.98
2022-12-14T02:01:11.702Z,194.45
2022-12-14T02:06:19.156Z,110.72
2022-12-14T02:11:31.104Z,191.50
2022-12-14T02:16:35.039Z,192.57
2022-12-14T02:21:52.557Z,194.75
2022-12-14T02:27:27.328Z,199.05
2022-12-14T02:33:02.392Z,206.57
2022-12-14T02:38:28.040Z,202.45
2022-12-14T02:43:34.349Z,203.10
2022-12-14T02:48:41.774Z,206.68
2022-12-14T02:53:50.174Z,211.00
2022-12-14T02:58:54.234Z,212.55
2022-12-14T03:03:59.538Z,211.02
2022-12-14T03:09:05.754Z,213.00
2022-12-14T03:14:13.354Z,220.55
2022-12-14T03:19:20.154Z,222.98
2022-12-14T03:24:27.155Z,228.48
2022-12-14T03:29:35.210Z,230.20
2022-12-14T03:34:44.327Z,232.68
2022-12-14T03:39:49.049Z,225.63
2022-12-14T03:45:00.513Z,232.60
2022-12-14T03:50:09.942Z,238.20
2022-12-14T03:55:22.209Z,227.80
2022-12-14T04:00:26.469Z,219.55
2022-12-14T04:05:35.169Z,232.63
2022-12-14T04:11:00.594Z,218.18
2022-12-14T04:16:25.338Z,133.25
2022-12-14T04:21:40.322Z,218.50
2022-12-14T04:26:46.999Z,224.60
2022-12-14T04:31:55.122Z,228.82
2022-12-14T04:37:02.929Z,226.32
2022-12-14T04:42:08.078Z,227.15
2022-12-14T04:47:13.075Z,239.23
2022-12-14T04:52:21.605Z,239.63
2022-12-14T04:57:28.588Z,229.43
2022-12-14T05:02:42.674Z,239.82
2022-12-14T05:07:54.111Z,237.07
2022-12-14T05:13:03.799Z,250.30
2022-12-14T05:18:08.563Z,238.82
2022-12-14T05:23:14.156Z,228.10
2022-12-14T05:28:18.066Z,243.68
2022-12-14T05:33:22.044Z,234.45
2022-12-14T05:38:27.303Z,239.90
2022-12-14T05:43:31.313Z,236.60
2022-12-14T05:48:35.398Z,229.27
2022-12-14T05:53:41.270Z,225.60
2022-12-14T05:58:45.177Z,221.85
2022-12-14T06:03:49.155Z,221.15
2022-12-14T06:08:54.416Z,212.82
2022-12-14T06:13:58.302Z,221.65
2022-12-14T06:19:03.422Z,213.75
2022-12-14T06:24:11.350Z,222.63
2022-12-14T06:29:17.981Z,210.48
2022-12-14T06:34:28.009Z,216.15
2022-12-14T06:39:34.020Z,213.68
2022-12-14T06:44:38.246Z,213.27
2022-12-14T06:49:42.228Z,225.43
2022-12-14T06:54:48.243Z,211.60
2022-12-14T06:59:52.251Z,207.85
2022-12-14T07:04:56.137Z,222.00
2022-12-14T07:10:01.579Z,206.90
2022-12-14T07:15:06.232Z,202.02
2022-12-14T07:20:11.309Z,191.98
2022-12-14T07:25:16.784Z,187.80
2022-12-14T07:30:20.666Z,188.18
2022-12-14T07:35:24.519Z,184.98
2022-12-14T07:40:29.898Z,179.43
2022-12-14T07:45:36.616Z,169.98
2022-12-14T07:50:40.526Z,168.77
2022-12-14T07:55:45.797Z,174.18
2022-12-14T08:00:49.754Z,167.50
2022-12-14T08:05:53.641Z,161.43
2022-12-14T08:10:58.879Z,164.80
2022-12-14T08:16:06.322Z,154.40
2022-12-14T08:21:11.684Z,157.43
2022-12-14T08:26:17.185Z,148.00
2022-12-14T08:31:22.754Z,148.88
2022-12-14T08:36:29.671Z,152.57
2022-12-14T08:41:35.307Z,141.77
2022-12-14T08:46:39.463Z,133.70
2022-12-14T08:51:43.589Z,136.50
2022-12-14T08:56:49.244Z,134.57
2022-12-14T09:01:53.367Z,134.23
2022-12-14T09:06:57.655Z,135.55
2022-12-14T09:12:06.491Z,121.97
2022-12-14T09:17:10.364Z,125.90
2022-12-14T09:22:14.590Z,115.70
2022-12-14T09:27:19.961Z,108.38
2022-12-14T09:32:23.814Z,94.90
2022-12-14T09:37:27.771Z,94.82
2022-12-14T09:42:50.680Z,93.65
2022-12-14T09:47:58.094Z,78.63
2022-12-14T09:53:03.487Z,73.30
2022-12-14T09:58:16.527Z,74.18
2022-12-14T10:03:30.043Z,74.82
2022-12-14T10:08:39.020Z,76.95
2022-12-14T10:14:00.488Z,76.25
2022-12-14T10:19:13.982Z,72.50
2022-12-14T10:24:22.003Z,75.20
2022-12-14T10:29:33.635Z,67.97
2022-12-14T10:34:40.261Z,73.53
2022-12-14T10:39:52.607Z,72.72
2022-12-14T10:50:49.848Z,69.55
2022-12-14T10:55:56.834Z,71.80
2022-12-14T11:01:02.187Z,74.40
2022-12-14T11:06:12.200Z,66.38
2022-12-14T11:11:19.451Z,73.90
2022-12-14T11:16:36.499Z,75.05
2022-12-14T11:21:41.081Z,77.00
2022-12-14T11:26:45.465Z,82.22
2022-12-14T11:31:52.644Z,80.60
2022-12-14T11:36:56.521Z,84.35
2022-12-14T11:42:02.959Z,78.28
2022-12-14T11:47:13.924Z,87.72
2022-12-14T11:52:20.063Z,82.63
2022-12-14T11:57:27.060Z,81.82
2022-12-14T12:02:35.449Z,88.63
2022-12-14T12:07:43.929Z,86.45
2022-12-14T12:12:54.475Z,89.03
2022-12-14T12:18:04.019Z,85.35
2022-12-14T12:23:11.605Z,88.72
2022-12-14T12:28:19.038Z,88.43
2022-12-14T12:33:29.534Z,97.80
2022-12-14T12:38:49.940Z,93.47
2022-12-14T12:43:56.239Z,90.25
2022-12-14T12:49:04.933Z,91.20
2022-12-14T12:54:12.327Z,96.20
2022-12-14T12:59:19.344Z,105.43
2022-12-14T13:04:30.491Z,112.30
2022-12-14T13:09:41.173Z,112.38
2022-12-14T13:14:49.995Z,115.55
2022-12-14T13:19:57.387Z,114.55
2022-12-14T13:25:12.367Z,110.80
2022-12-14T13:30:23.753Z,119.32
2022-12-14T13:35:38.360Z,120.15
2022-12-14T13:40:57.645Z,120.40
2022-12-14T13:46:07.680Z,122.90
2022-12-14T13:51:25.597Z,126.40
2022-12-14T13:56:33.476Z,127.82
2022-12-14T14:01:58.187Z,121.85
2022-12-14T14:07:35.190Z,117.40
2022-12-14T14:12:46.878Z,122.90
2022-12-14T14:17:52.972Z,125.15
2022-12-14T14:23:30.972Z,115.13
2022-12-14T14:28:37.653Z,128.52
2022-12-14T14:33:47.652Z,119.03
2022-12-14T14:38:52.784Z,118.57
2022-12-14T14:44:00.781Z,120.88
2022-12-14T14:49:06.874Z,115.00
2022-12-14T14:55:10.765Z,117.05
2022-12-14T15:00:04.506Z,117.75
2022-12-14T15:10:46.813Z,114.23
2022-12-14T15:15:56.761Z,128.43
2022-12-14T15:21:03.945Z,130.63
2022-12-14T15:26:17.509Z,139.55
2022-12-14T15:31:30.436Z,135.65
2022-12-14T15:36:45.070Z,140.65
2022-12-14T15:41:53.224Z,143.95
2022-12-14T15:47:00.405Z,136.20
2022-12-14T15:52:05.338Z,134.60
2022-12-14T15:57:19.365Z,144.68
2022-12-14T16:02:29.006Z,138.52
2022-12-14T16:07:41.368Z,125.80
2022-12-14T16:12:47.732Z,139.15
2022-12-14T16:18:03.273Z,139.60
2022-12-14T16:23:23.395Z,143.98
2022-12-14T16:28:31.293Z,134.60
2022-12-14T16:33:37.703Z,150.40
2022-12-14T16:38:46.295Z,148.75
2022-12-14T16:43:57.111Z,150.48
2022-12-14T16:49:23.480Z,133.95
2022-12-14T16:59:46.279Z,147.38
2022-12-14T17:04:55.245Z,146.75
2022-12-14T17:09:59.446Z,147.60
2022-12-14T17:15:05.036Z,20.80
2022-12-14T17:20:18.157Z,140.45
2022-12-14T17:25:24.698Z,139.40
2022-12-14T17:30:31.851Z,137.00
2022-12-14T17:35:42.341Z,145.07
2022-12-14T17:40:47.660Z,138.50
2022-12-14T17:45:55.751Z,147.10
2022-12-14T17:51:03.577Z,155.20
2022-12-14T17:56:31.909Z,154.98
2022-12-14T18:01:55.794Z,136.50
2022-12-14T18:07:04.490Z,157.48
2022-12-14T18:12:23.234Z,138.27
2022-12-14T18:17:42.474Z,149.95
2022-12-14T18:22:51.825Z,156.68
2022-12-14T18:28:06.487Z,168.85
2022-12-14T18:33:14.633Z,156.55
2022-12-14T18:38:29.162Z,160.40
2022-12-14T18:43:43.546Z,151.88
2022-12-14T18:48:55.430Z,153.27
2022-12-14T18:54:04.170Z,142.07
2022-12-14T18:59:11.701Z,165.10
2022-12-14T19:04:16.201Z,155.60
2022-12-14T19:09:21.655Z,163.73
2022-12-14T19:14:25.810Z,169.20
2022-12-14T19:19:36.875Z,157.23
2022-12-14T19:24:52.019Z,17.13
2022-12-14T19:29:56.449Z,175.95
2022-12-14T19:35:00.316Z,153.48
2022-12-14T19:40:11.701Z,166.90
2022-12-14T19:45:17.649Z,146.43
2022-12-14T19:50:21.702Z,168.63
2022-12-14T19:55:26.969Z,181.57
2022-12-14T20:00:31.112Z,167.38
2022-12-14T20:05:35.123Z,175.93
2022-12-14T20:10:40.466Z,190.00
2022-12-14T20:15:49.743Z,188.77
2022-12-14T20:20:53.739Z,188.13
2022-12-14T20:26:02.754Z,210.15
2022-12-14T20:31:07.591Z,191.95
2022-12-14T20:36:12.268Z,9.95
2022-12-14T20:41:17.850Z,208.75
2022-12-14T20:46:27.790Z,209.02
2022-12-14T20:51:32.553Z,201.13
2022-12-14T20:56:38.002Z,173.07
2022-12-14T21:01:43.145Z,186.88
2022-12-14T21:06:47.161Z,163.70
2022-12-14T21:12:09.972Z,148.55
2022-12-14T21:17:14.594Z,179.43
2022-12-14T21:22:20.142Z,226.38
2022-12-14T21:27:26.956Z,160.30
2022-12-14T21:32:30.922Z,192.23
2022-12-14T21:37:34.975Z,169.65
2022-12-14T21:42:40.236Z,187.27
2022-12-14T21:47:44.145Z,202.07
2022-12-14T21:52:48.091Z,191.90
2022-12-14T21:58:10.770Z,205.10
2022-12-14T22:03:14.627Z,219.35
2022-12-14T22:08:18.569Z,210.65
2022-12-14T22:13:23.834Z,216.30
2022-12-14T22:18:27.711Z,24.77
2022-12-14T22:23:34.123Z,221.13
2022-12-14T22:28:40.245Z,228.15
2022-12-14T22:33:44.113Z,36.95
2022-12-14T22:38:53.386Z,228.40
2022-12-14T22:43:59.641Z,222.05
2022-12-14T22:49:04.218Z,221.80
2022-12-14T22:54:08.186Z,209.50
2022-12-14T22:59:16.278Z,227.95
2022-12-14T23:04:20.174Z,212.80
2022-12-14T23:09:41.651Z,223.55
2022-12-14T23:15:04.051Z,188.18
2022-12-14T23:20:26.000Z,218.70
2022-12-14T23:25:47.544Z,222.02
2022-12-14T23:31:10.502Z,227.75
2022-12-14T23:36:32.119Z,229.50
2022-12-14T23:41:53.557Z,228.50
2022-12-14T23:47:16.215Z,213.20
2022-12-14T23:52:37.735Z,228.85
2022-12-14T23:57:59.255Z,226.70
